sensor_id;sensor_type;location;lat;lon;timestamp;P1;durP1;ratioP1;P2;durP2;ratioP2
30010;SDS011;16851;53.564;8.112;2023-03-20T00:04:08;13.60;;;8.77;;
30010;SDS011;16851;53.564;8.112;2023-03-20T00:09:12;18.77;;;9.97;;
30010;SDS011;16851;53.564;8.112;2023-03-20T00:14:19;13.60;;;9.43;;
30010;SDS011;16851;53.564;8.112;2023-03-20T00:19:24;16.57;;;9.17;;
30010;SDS011;16851;53.564;8.112;2023-03-20T00:24:30;13.27;;;9.23;;
30010;SDS011;16851;53.564;8.112;2023-03-20T00:29:34;17.93;;;9.67;;
30010;SDS011;16851;53.564;8.112;2023-03-20T00:34:36;19.03;;;11.17;;
30010;SDS011;16851;53.564;8.112;2023-03-20T00:39:39;16.60;;;11.07;;
30010;SDS011;16851;53.564;8.112;2023-03-20T00:44:44;18.17;;;9.63;;
30010;SDS011;16851;53.564;8.112;2023-03-20T00:49:57;17.00;;;9.93;;
30010;SDS011;16851;53.564;8.112;2023-03-20T00:54:59;13.60;;;8.90;;
30010;SDS011;16851;53.564;8.112;2023-03-20T01:00:03;13.43;;;9.53;;
30010;SDS011;16851;53.564;8.112;2023-03-20T01:05:13;13.63;;;8.10;;
30010;SDS011;16851;53.564;8.112;2023-03-20T01:10:15;8.33;;;5.43;;
30010;SDS011;16851;53.564;8.112;2023-03-20T01:15:20;8.37;;;5.50;;
30010;SDS011;16851;53.564;8.112;2023-03-20T01:20:26;7.63;;;4.90;;
30010;SDS011;16851;53.564;8.112;2023-03-20T01:25:32;9.83;;;6.07;;
30010;SDS011;16851;53.564;8.112;2023-03-20T01:30:34;9.33;;;6.00;;
30010;SDS011;16851;53.564;8.112;2023-03-20T01:35:41;10.40;;;5.73;;
30010;SDS011;16851;53.564;8.112;2023-03-20T01:40:57;9.73;;;6.50;;
30010;SDS011;16851;53.564;8.112;2023-03-20T01:51:12;14.07;;;8.13;;
30010;SDS011;16851;53.564;8.112;2023-03-20T01:56:14;12.30;;;7.80;;
30010;SDS011;16851;53.564;8.112;2023-03-20T02:01:23;17.27;;;7.33;;
30010;SDS011;16851;53.564;8.112;2023-03-20T02:06:25;13.50;;;8.00;;
30010;SDS011;16851;53.564;8.112;2023-03-20T02:11:45;10.77;;;7.67;;
30010;SDS011;16851;53.564;8.112;2023-03-20T02:16:50;14.20;;;7.73;;
30010;SDS011;16851;53.564;8.112;2023-03-20T02:27:37;12.17;;;7.23;;
30010;SDS011;16851;53.564;8.112;2023-03-20T03:04:48;11.23;;;6.97;;
30010;SDS011;16851;53.564;8.112;2023-03-20T03:09:56;14.57;;;7.10;;
30010;SDS011;16851;53.564;8.112;2023-03-20T03:15:07;14.73;;;7.90;;
30010;SDS011;16851;53.564;8.112;2023-03-20T03:20:18;13.57;;;7.40;;
30010;SDS011;16851;53.564;8.112;2023-03-20T03:25:24;14.40;;;7.73;;
30010;SDS011;16851;53.564;8.112;2023-03-20T03:30:28;14.70;;;7.93;;
30010;SDS011;16851;53.564;8.112;2023-03-20T03:35:36;14.90;;;8.57;;
30010;SDS011;16851;53.564;8.112;2023-03-20T03:41:01;13.60;;;7.07;;
30010;SDS011;16851;53.564;8.112;2023-03-20T03:47:00;14.43;;;7.60;;
30010;SDS011;16851;53.564;8.112;2023-03-20T03:51:52;12.00;;;7.63;;
30010;SDS011;16851;53.564;8.112;2023-03-20T03:56:58;16.63;;;8.90;;
30010;SDS011;16851;53.564;8.112;2023-03-20T04:02:01;19.17;;;8.93;;
30010;SDS011;16851;53.564;8.112;2023-03-20T04:07:07;17.87;;;9.63;;
30010;SDS011;16851;53.564;8.112;2023-03-20T04:12:53;18.77;;;10.20;;
30010;SDS011;16851;53.564;8.112;2023-03-20T04:17:43;19.67;;;10.40;;
30010;SDS011;16851;53.564;8.112;2023-03-20T04:22:49;16.97;;;9.83;;
30010;SDS011;16851;53.564;8.112;2023-03-20T04:27:54;19.70;;;10.67;;
30010;SDS011;16851;53.564;8.112;2023-03-20T04:33:20;21.03;;;9.33;;
30010;SDS011;16851;53.564;8.112;2023-03-20T04:38:55;19.83;;;9.33;;
30010;SDS011;16851;53.564;8.112;2023-03-20T04:44:00;14.37;;;7.53;;
30010;SDS011;16851;53.564;8.112;2023-03-20T04:49:06;14.97;;;8.10;;
30010;SDS011;16851;53.564;8.112;2023-03-20T04:54:07;14.43;;;8.33;;
30010;SDS011;16851;53.564;8.112;2023-03-20T04:59:12;13.50;;;7.87;;
30010;SDS011;16851;53.564;8.112;2023-03-20T05:04:20;18.73;;;8.73;;
30010;SDS011;16851;53.564;8.112;2023-03-20T05:09:23;15.50;;;8.47;;
30010;SDS011;16851;53.564;8.112;2023-03-20T05:14:30;17.77;;;8.70;;
30010;SDS011;16851;53.564;8.112;2023-03-20T05:19:55;14.87;;;8.57;;
30010;SDS011;16851;53.564;8.112;2023-03-20T05:25:18;16.23;;;8.17;;
30010;SDS011;16851;53.564;8.112;2023-03-20T05:30:42;13.30;;;8.20;;
30010;SDS011;16851;53.564;8.112;2023-03-20T05:36:19;14.63;;;7.93;;
30010;SDS011;16851;53.564;8.112;2023-03-20T05:41:53;13.43;;;8.43;;
30010;SDS011;16851;53.564;8.112;2023-03-20T05:47:14;21.27;;;9.90;;
30010;SDS011;16851;53.564;8.112;2023-03-20T05:52:28;17.30;;;8.33;;
30010;SDS011;16851;53.564;8.112;2023-03-20T05:57:38;17.07;;;9.33;;
30010;SDS011;16851;53.564;8.112;2023-03-20T06:02:58;17.10;;;9.30;;
30010;SDS011;16851;53.564;8.112;2023-03-20T06:08:20;16.80;;;9.00;;
30010;SDS011;16851;53.564;8.112;2023-03-20T06:13:22;20.33;;;11.73;;
30010;SDS011;16851;53.564;8.112;2023-03-20T06:18:26;20.27;;;9.90;;
30010;SDS011;16851;53.564;8.112;2023-03-20T06:23:33;17.27;;;9.20;;
30010;SDS011;16851;53.564;8.112;2023-03-20T06:28:40;15.97;;;10.07;;
30010;SDS011;16851;53.564;8.112;2023-03-20T06:33:46;16.17;;;9.57;;
30010;SDS011;16851;53.564;8.112;2023-03-20T06:38:49;18.03;;;9.83;;
30010;SDS011;16851;53.564;8.112;2023-03-20T06:43:53;18.43;;;10.73;;
30010;SDS011;16851;53.564;8.112;2023-03-20T06:48:59;23.17;;;10.80;;
30010;SDS011;16851;53.564;8.112;2023-03-20T06:54:01;18.37;;;10.90;;
30010;SDS011;16851;53.564;8.112;2023-03-20T06:59:07;20.37;;;11.43;;
30010;SDS011;16851;53.564;8.112;2023-03-20T07:04:12;17.73;;;10.17;;
30010;SDS011;16851;53.564;8.112;2023-03-20T07:09:23;20.10;;;10.43;;
30010;SDS011;16851;53.564;8.112;2023-03-20T07:14:25;24.87;;;10.87;;
30010;SDS011;16851;53.564;8.112;2023-03-20T07:19:31;18.30;;;10.93;;
30010;SDS011;16851;53.564;8.112;2023-03-20T07:24:40;25.03;;;11.20;;
30010;SDS011;16851;53.564;8.112;2023-03-20T07:29:48;18.60;;;9.93;;
30010;SDS011;16851;53.564;8.112;2023-03-20T07:34:52;17.70;;;10.87;;
30010;SDS011;16851;53.564;8.112;2023-03-20T07:39:57;20.03;;;11.73;;
30010;SDS011;16851;53.564;8.112;2023-03-20T07:45:06;20.70;;;10.80;;
30010;SDS011;16851;53.564;8.112;2023-03-20T07:50:12;21.60;;;12.30;;
30010;SDS011;16851;53.564;8.112;2023-03-20T07:55:18;19.83;;;10.80;;
30010;SDS011;16851;53.564;8.112;2023-03-20T08:00:22;19.93;;;10.33;;
30010;SDS011;16851;53.564;8.112;2023-03-20T08:05:27;20.60;;;10.77;;
30010;SDS011;16851;53.564;8.112;2023-03-20T08:10:29;18.43;;;10.00;;
30010;SDS011;16851;53.564;8.112;2023-03-20T08:15:33;19.73;;;9.43;;
30010;SDS011;16851;53.564;8.112;2023-03-20T08:20:38;24.03;;;10.23;;
30010;SDS011;16851;53.564;8.112;2023-03-20T08:25:48;18.77;;;9.37;;
30010;SDS011;16851;53.564;8.112;2023-03-20T08:30:53;16.23;;;8.23;;
30010;SDS011;16851;53.564;8.112;2023-03-20T08:36:00;15.17;;;8.73;;
30010;SDS011;16851;53.564;8.112;2023-03-20T08:41:03;16.17;;;8.23;;
30010;SDS011;16851;53.564;8.112;2023-03-20T08:46:05;18.23;;;8.07;;
30010;SDS011;16851;53.564;8.112;2023-03-20T08:51:08;14.67;;;8.53;;
30010;SDS011;16851;53.564;8.112;2023-03-20T08:56:11;13.40;;;7.77;;
30010;SDS011;16851;53.564;8.112;2023-03-20T09:01:14;13.63;;;7.70;;
30010;SDS011;16851;53.564;8.112;2023-03-20T09:06:22;15.27;;;8.37;;
30010;SDS011;16851;53.564;8.112;2023-03-20T09:11:24;15.73;;;8.10;;
30010;SDS011;16851;53.564;8.112;2023-03-20T09:16:27;15.87;;;7.57;;
30010;SDS011;16851;53.564;8.112;2023-03-20T09:21:29;15.97;;;7.67;;
30010;SDS011;16851;53.564;8.112;2023-03-20T09:26:32;15.80;;;7.43;;
30010;SDS011;16851;53.564;8.112;2023-03-20T09:31:39;16.03;;;8.93;;
30010;SDS011;16851;53.564;8.112;2023-03-20T09:36:41;17.23;;;8.47;;
30010;SDS011;16851;53.564;8.112;2023-03-20T09:41:47;15.33;;;8.50;;
30010;SDS011;16851;53.564;8.112;2023-03-20T09:57:46;16.13;;;8.17;;
30010;SDS011;16851;53.564;8.112;2023-03-20T10:08:03;13.17;;;6.77;;
30010;SDS011;16851;53.564;8.112;2023-03-20T10:13:11;12.57;;;8.07;;
30010;SDS011;16851;53.564;8.112;2023-03-20T10:18:25;13.13;;;7.93;;
30010;SDS011;16851;53.564;8.112;2023-03-20T10:34:03;13.45;;;8.55;;
30010;SDS011;16851;53.564;8.112;2023-03-20T10:44:40;15.00;;;6.53;;
30010;SDS011;16851;53.564;8.112;2023-03-20T10:49:46;13.70;;;6.87;;
30010;SDS011;16851;53.564;8.112;2023-03-20T10:54:56;12.32;;;6.90;;
30010;SDS011;16851;53.564;8.112;2023-03-20T11:00:04;13.85;;;7.00;;
30010;SDS011;16851;53.564;8.112;2023-03-20T11:05:31;10.48;;;5.97;;
30010;SDS011;16851;53.564;8.112;2023-03-20T11:10:38;13.97;;;6.27;;
30010;SDS011;16851;53.564;8.112;2023-03-20T11:15:44;119.73;;;40.60;;
30010;SDS011;16851;53.564;8.112;2023-03-20T11:20:52;10.13;;;5.50;;
30010;SDS011;16851;53.564;8.112;2023-03-20T11:30:58;15.37;;;5.50;;
30010;SDS011;16851;53.564;8.112;2023-03-20T11:36:09;12.90;;;5.63;;
30010;SDS011;16851;53.564;8.112;2023-03-20T11:41:26;12.07;;;5.53;;
30010;SDS011;16851;53.564;8.112;2023-03-20T11:46:28;11.23;;;5.70;;
30010;SDS011;16851;53.564;8.112;2023-03-20T11:51:32;14.05;;;5.60;;
30010;SDS011;16851;53.564;8.112;2023-03-20T11:56:39;13.37;;;6.40;;
30010;SDS011;16851;53.564;8.112;2023-03-20T12:01:53;10.97;;;5.93;;
30010;SDS011;16851;53.564;8.112;2023-03-20T12:12:16;14.40;;;5.90;;
30010;SDS011;16851;53.564;8.112;2023-03-20T12:28:24;13.35;;;6.78;;
30010;SDS011;16851;53.564;8.112;2023-03-20T12:33:36;13.93;;;6.47;;
30010;SDS011;16851;53.564;8.112;2023-03-20T12:39:00;13.10;;;6.47;;
30010;SDS011;16851;53.564;8.112;2023-03-20T12:44:25;14.20;;;6.45;;
30010;SDS011;16851;53.564;8.112;2023-03-20T12:49:39;13.35;;;6.60;;
30010;SDS011;16851;53.564;8.112;2023-03-20T13:00:34;15.27;;;6.68;;
30010;SDS011;16851;53.564;8.112;2023-03-20T13:05:42;15.88;;;7.53;;
30010;SDS011;16851;53.564;8.112;2023-03-20T13:37:37;13.73;;;5.90;;
30010;SDS011;16851;53.564;8.112;2023-03-20T13:42:53;15.27;;;6.37;;
30010;SDS011;16851;53.564;8.112;2023-03-20T13:48:28;19.33;;;6.33;;
30010;SDS011;16851;53.564;8.112;2023-03-20T13:59:08;15.53;;;6.80;;
30010;SDS011;16851;53.564;8.112;2023-03-20T14:04:24;14.27;;;6.87;;
30010;SDS011;16851;53.564;8.112;2023-03-20T14:09:32;14.23;;;6.33;;
30010;SDS011;16851;53.564;8.112;2023-03-20T14:19:56;19.57;;;8.50;;
30010;SDS011;16851;53.564;8.112;2023-03-20T14:25:07;13.63;;;7.97;;
30010;SDS011;16851;53.564;8.112;2023-03-20T14:35:36;18.47;;;7.83;;
30010;SDS011;16851;53.564;8.112;2023-03-20T14:41:15;16.83;;;8.80;;
30010;SDS011;16851;53.564;8.112;2023-03-20T14:46:26;19.00;;;8.27;;
30010;SDS011;16851;53.564;8.112;2023-03-20T14:51:44;22.43;;;12.60;;
30010;SDS011;16851;53.564;8.112;2023-03-20T14:56:50;11.33;;;6.80;;
30010;SDS011;16851;53.564;8.112;2023-03-20T15:06:58;13.17;;;7.67;;
30010;SDS011;16851;53.564;8.112;2023-03-20T15:12:03;11.40;;;7.63;;
30010;SDS011;16851;53.564;8.112;2023-03-20T15:17:14;12.30;;;8.30;;
30010;SDS011;16851;53.564;8.112;2023-03-20T15:22:20;16.63;;;8.23;;
30010;SDS011;16851;53.564;8.112;2023-03-20T15:27:23;22.07;;;10.13;;
30010;SDS011;16851;53.564;8.112;2023-03-20T15:32:26;17.13;;;10.77;;
30010;SDS011;16851;53.564;8.112;2023-03-20T15:37:31;26.63;;;13.60;;
30010;SDS011;16851;53.564;8.112;2023-03-20T15:42:37;20.37;;;11.83;;
30010;SDS011;16851;53.564;8.112;2023-03-20T15:47:41;20.80;;;13.17;;
30010;SDS011;16851;53.564;8.112;2023-03-20T15:52:45;19.57;;;13.17;;
30010;SDS011;16851;53.564;8.112;2023-03-20T15:57:57;16.20;;;11.53;;
30010;SDS011;16851;53.564;8.112;2023-03-20T16:03:02;13.57;;;9.30;;
30010;SDS011;16851;53.564;8.112;2023-03-20T16:08:17;18.13;;;11.23;;
30010;SDS011;16851;53.564;8.112;2023-03-20T16:13:26;18.80;;;10.80;;
30010;SDS011;16851;53.564;8.112;2023-03-20T16:18:35;18.33;;;12.67;;
30010;SDS011;16851;53.564;8.112;2023-03-20T16:23:39;15.77;;;9.43;;
30010;SDS011;16851;53.564;8.112;2023-03-20T16:28:50;18.83;;;12.20;;
30010;SDS011;16851;53.564;8.112;2023-03-20T16:34:04;21.83;;;14.63;;
30010;SDS011;16851;53.564;8.112;2023-03-20T16:39:15;22.50;;;15.93;;
30010;SDS011;16851;53.564;8.112;2023-03-20T16:44:20;24.07;;;15.33;;
30010;SDS011;16851;53.564;8.112;2023-03-20T16:54:36;14.97;;;12.10;;
30010;SDS011;16851;53.564;8.112;2023-03-20T16:59:41;21.33;;;15.43;;
30010;SDS011;16851;53.564;8.112;2023-03-20T17:04:43;22.13;;;14.10;;
30010;SDS011;16851;53.564;8.112;2023-03-20T17:15:21;17.73;;;12.00;;
30010;SDS011;16851;53.564;8.112;2023-03-20T17:20:27;15.27;;;11.70;;
30010;SDS011;16851;53.564;8.112;2023-03-20T17:25:29;16.30;;;10.60;;
30010;SDS011;16851;53.564;8.112;2023-03-20T17:30:36;15.60;;;10.13;;
30010;SDS011;16851;53.564;8.112;2023-03-20T17:35:40;15.17;;;11.83;;
30010;SDS011;16851;53.564;8.112;2023-03-20T17:40:44;15.03;;;10.80;;
30010;SDS011;16851;53.564;8.112;2023-03-20T17:45:48;16.47;;;11.93;;
30010;SDS011;16851;53.564;8.112;2023-03-20T17:50:50;16.43;;;12.53;;
30010;SDS011;16851;53.564;8.112;2023-03-20T17:55:52;13.00;;;10.77;;
30010;SDS011;16851;53.564;8.112;2023-03-20T18:00:54;15.40;;;11.77;;
30010;SDS011;16851;53.564;8.112;2023-03-20T18:06:00;22.80;;;12.83;;
30010;SDS011;16851;53.564;8.112;2023-03-20T18:11:07;20.63;;;15.20;;
30010;SDS011;16851;53.564;8.112;2023-03-20T18:16:22;20.17;;;16.13;;
30010;SDS011;16851;53.564;8.112;2023-03-20T18:21:29;17.17;;;13.03;;
30010;SDS011;16851;53.564;8.112;2023-03-20T18:26:31;23.80;;;17.00;;
30010;SDS011;16851;53.564;8.112;2023-03-20T18:31:33;20.43;;;16.00;;
30010;SDS011;16851;53.564;8.112;2023-03-20T18:36:46;15.17;;;11.87;;
30010;SDS011;16851;53.564;8.112;2023-03-20T18:41:54;26.63;;;17.67;;
30010;SDS011;16851;53.564;8.112;2023-03-20T18:46:58;26.70;;;17.80;;
30010;SDS011;16851;53.564;8.112;2023-03-20T18:52:05;28.40;;;18.47;;
30010;SDS011;16851;53.564;8.112;2023-03-20T18:57:10;28.43;;;18.60;;
30010;SDS011;16851;53.564;8.112;2023-03-20T19:02:13;23.10;;;17.70;;
30010;SDS011;16851;53.564;8.112;2023-03-20T19:07:15;28.83;;;20.73;;
30010;SDS011;16851;53.564;8.112;2023-03-20T19:12:19;28.30;;;21.30;;
30010;SDS011;16851;53.564;8.112;2023-03-20T19:17:21;29.00;;;21.27;;
30010;SDS011;16851;53.564;8.112;2023-03-20T19:22:25;23.97;;;16.07;;
30010;SDS011;16851;53.564;8.112;2023-03-20T19:27:30;26.93;;;20.33;;
30010;SDS011;16851;53.564;8.112;2023-03-20T19:32:33;31.63;;;22.33;;
30010;SDS011;16851;53.564;8.112;2023-03-20T19:37:36;30.17;;;23.27;;
30010;SDS011;16851;53.564;8.112;2023-03-20T19:42:42;30.40;;;21.20;;
30010;SDS011;16851;53.564;8.112;2023-03-20T19:48:05;26.17;;;20.23;;
30010;SDS011;16851;53.564;8.112;2023-03-20T19:53:23;43.63;;;30.10;;
30010;SDS011;16851;53.564;8.112;2023-03-20T19:58:31;30.60;;;23.13;;
30010;SDS011;16851;53.564;8.112;2023-03-20T20:03:34;29.70;;;23.50;;
30010;SDS011;16851;53.564;8.112;2023-03-20T20:08:38;34.10;;;25.37;;
30010;SDS011;16851;53.564;8.112;2023-03-20T20:13:49;42.73;;;29.27;;
30010;SDS011;16851;53.564;8.112;2023-03-20T20:19:13;38.90;;;26.60;;
30010;SDS011;16851;53.564;8.112;2023-03-20T20:24:16;47.40;;;31.13;;
30010;SDS011;16851;53.564;8.112;2023-03-20T20:29:19;48.53;;;34.77;;
30010;SDS011;16851;53.564;8.112;2023-03-20T20:34:25;44.17;;;31.47;;
30010;SDS011;16851;53.564;8.112;2023-03-20T20:39:47;50.40;;;34.57;;
30010;SDS011;16851;53.564;8.112;2023-03-20T20:44:55;52.07;;;35.20;;
30010;SDS011;16851;53.564;8.112;2023-03-20T20:49:57;51.30;;;34.07;;
30010;SDS011;16851;53.564;8.112;2023-03-20T20:55:00;52.40;;;35.43;;
30010;SDS011;16851;53.564;8.112;2023-03-20T21:00:22;49.60;;;33.47;;
30010;SDS011;16851;53.564;8.112;2023-03-20T21:05:54;61.10;;;39.63;;
30010;SDS011;16851;53.564;8.112;2023-03-20T21:11:04;61.87;;;38.40;;
30010;SDS011;16851;53.564;8.112;2023-03-20T21:16:06;59.07;;;39.43;;
30010;SDS011;16851;53.564;8.112;2023-03-20T21:21:15;59.07;;;37.63;;
30010;SDS011;16851;53.564;8.112;2023-03-20T21:26:26;62.10;;;39.37;;
30010;SDS011;16851;53.564;8.112;2023-03-20T21:31:33;60.63;;;38.97;;
30010;SDS011;16851;53.564;8.112;2023-03-20T21:36:41;68.93;;;40.87;;
30010;SDS011;16851;53.564;8.112;2023-03-20T21:41:44;65.00;;;38.67;;
30010;SDS011;16851;53.564;8.112;2023-03-20T21:46:49;69.40;;;41.93;;
30010;SDS011;16851;53.564;8.112;2023-03-20T21:52:11;60.40;;;36.33;;
30010;SDS011;16851;53.564;8.112;2023-03-20T21:57:35;77.17;;;43.10;;
30010;SDS011;16851;53.564;8.112;2023-03-20T22:03:00;81.93;;;44.00;;
30010;SDS011;16851;53.564;8.112;2023-03-20T22:08:16;82.37;;;44.17;;
30010;SDS011;16851;53.564;8.112;2023-03-20T22:13:38;68.40;;;42.27;;
30010;SDS011;16851;53.564;8.112;2023-03-20T22:19:05;71.70;;;41.30;;
30010;SDS011;16851;53.564;8.112;2023-03-20T22:24:26;81.40;;;44.30;;
30010;SDS011;16851;53.564;8.112;2023-03-20T22:29:53;86.80;;;44.37;;
30010;SDS011;16851;53.564;8.112;2023-03-20T22:35:15;87.47;;;43.30;;
30010;SDS011;16851;53.564;8.112;2023-03-20T22:40:42;89.33;;;45.33;;
30010;SDS011;16851;53.564;8.112;2023-03-20T22:46:07;86.97;;;46.07;;
30010;SDS011;16851;53.564;8.112;2023-03-20T22:51:32;95.60;;;47.07;;
30010;SDS011;16851;53.564;8.112;2023-03-20T22:56:44;103.80;;;47.70;;
30010;SDS011;16851;53.564;8.112;2023-03-20T23:01:48;105.60;;;46.37;;
30010;SDS011;16851;53.564;8.112;2023-03-20T23:06:53;103.60;;;46.67;;
30010;SDS011;16851;53.564;8.112;2023-03-20T23:11:55;115.00;;;49.43;;
30010;SDS011;16851;53.564;8.112;2023-03-20T23:16:57;134.00;;;53.17;;
30010;SDS011;16851;53.564;8.112;2023-03-20T23:22:02;135.60;;;53.87;;
30010;SDS011;16851;53.564;8.112;2023-03-20T23:27:06;133.90;;;55.00;;
30010;SDS011;16851;53.564;8.112;2023-03-20T23:32:10;145.80;;;54.87;;
30010;SDS011;16851;53.564;8.112;2023-03-20T23:37:18;125.40;;;50.23;;
30010;SDS011;16851;53.564;8.112;2023-03-20T23:42:22;143.03;;;54.77;;
30010;SDS011;16851;53.564;8.112;2023-03-20T23:47:31;137.67;;;53.23;;
30010;SDS011;16851;53.564;8.112;2023-03-20T23:52:50;129.97;;;53.60;;
30010;SDS011;16851;53.564;8.112;2023-03-20T23:58:06;129.87;;;53.03;;
